Mercury — 3FFC7 — position and weather

sailwx.info

Track history (hours):
 
Tides and Currents Weather Stations Pressure Air Temp Water Temp Dewpoint Dewpoint Depression Visibility Wind Speed Wind Dir Waves Ship Positions

Mercury

Operator: Royal Caribbean Cruises Ltd

Last reported at 2019-Oct-11 20:21 UTC. Time now 2019-Oct-18 23:36 UTC.
Position N 31°24' E 122°34'.

Length 199 m; draft 8.1 m.

Type: Cargo ship. MMSI: 371862000.

Date/timePositionNaut miles runAvg speedWind from/ knotsBaromVisibWave heightAir tempDewpointWater temp
2019-Oct-11 20:21N 31°24' E 122°34'512.3
2019-Oct-11 19:56N 31°19' E 122°33'512.5
2019-Oct-11 19:30N 31°14' E 122°32'712.3
2019-Oct-11 18:55N 31°06' E 122°33'510.9
2019-Oct-11 18:26N 31°06' E 122°27'613.7
2019-Oct-11 18:00N 31°06' E 122°20'714.4
2019-Oct-11 17:30N 31°10' E 122°12'715.0
2019-Oct-11 17:00N 31°14' E 122°05'714.4
2019-Oct-11 16:30N 31°15' E 121°57'612.7
2019-Oct-11 16:00N 31°17' E 121°50'611.0
2019-Oct-11 15:28N 31°19' E 121°43'2 0.2
2019-Oct-11 04:02N 31°20' E 121°41'0 1.4
2019-Oct-11 04:00N 31°20' E 121°41'3 5.8
2019-Oct-11 03:25N 31°19' E 121°45'4 9.1
2019-Oct-11 03:00N 31°17' E 121°49'510.1
2019-Oct-11 02:31N 31°16' E 121°55'611.1
2019-Oct-11 01:57N 31°15' E 122°02'511.1
2019-Oct-11 01:29N 31°13' E 122°07'510.1
2019-Oct-11 01:00N 31°10' E 122°12'510.0
2019-Oct-11 00:30N 31°07' E 122°17'4 8.4
2019-Oct-10 23:58N 31°06' E 122°22'3 6.0
2019-Oct-10 23:30N 31°07' E 122°25'4 7.4
2019-Oct-10 22:59N 31°09' E 122°28'3 5.6
2019-Oct-10 22:30N 31°11' E 122°31'4 6.2
2019-Oct-10 21:52N 31°13' E 122°35'0 0.0
2019-Oct-10 20:55N 31°13' E 122°35'0 0.0
2019-Oct-10 19:22N 31°13' E 122°35'0 0.0
2019-Oct-10 18:49N 31°13' E 122°35'15 0.9
2019-Oct-10 02:20N 31°05' E 122°51'35212.3
2019-Oct-08 21:49N 25°33' E 120°40'512.2
2019-Oct-08 21:26N 25°29' E 120°37'612.3
2019-Oct-08 20:58N 25°24' E 120°35'32511.4
2019-Oct-07 16:25N 21°54' E 116°04'613.1
2019-Oct-07 15:56N 21°52' E 115°57'1113.1
2019-Oct-07 15:07N 21°49' E 115°46'913.1
2019-Oct-07 14:25N 21°46' E 115°37'1013.0
2019-Oct-07 13:40N 21°43' E 115°27'213.0
2019-Oct-07 13:30N 21°42' E 115°25'8012.4
2019-Oct-07 07:01N 21°45' E 113°59'010.7
2019-Oct-07 06:59N 21°45' E 113°58'611.0
2019-Oct-07 06:27N 21°49' E 113°53'812.7
2019-Oct-07 05:49N 21°56' E 113°51'412.4
2019-Oct-07 05:30N 22°00' E 113°52'712.7
2019-Oct-07 04:59N 22°06' E 113°48'4 9.2
2019-Oct-07 04:30N 22°11' E 113°47'714.6
2019-Oct-07 04:00N 22°18' E 113°48'714.3
2019-Oct-07 03:30N 22°25' E 113°46'714.9
2019-Oct-07 03:00N 22°32' E 113°44'2012.4
2019-Oct-07 01:21N 22°50' E 113°35'410.7
2019-Oct-07 00:59N 22°54' E 113°34'7 9.4
2019-Oct-07 00:15N 23°01' E 113°32'0 0.0
2019-Oct-06 21:09N 23°01' E 113°32'0 0.0
2019-Oct-06 20:54N 23°01' E 113°32'0 0.0
2019-Oct-06 20:27N 23°01' E 113°32'0 0.0
2019-Oct-06 19:57N 23°01' E 113°32'0 0.0
2019-Oct-06 19:30N 23°01' E 113°32'0 0.0
2019-Oct-06 17:57N 23°01' E 113°32'0 0.0
2019-Oct-06 17:27N 23°01' E 113°32'0 0.0
2019-Oct-06 14:54N 23°01' E 113°32'0 0.0
2019-Oct-06 09:53N 23°01' E 113°32'1 2.5
2019-Oct-06 09:30N 22°60' E 113°32'5 9.2
2019-Oct-06 08:57N 22°55' E 113°34'4 8.9
2019-Oct-06 08:28N 22°51' E 113°34'611.4
2019-Oct-06 07:55N 22°46' E 113°38'410.2
2019-Oct-06 07:30N 22°42' E 113°41'611.8
2019-Oct-06 07:00N 22°37' E 113°42'714.7
2019-Oct-06 06:31N 22°30' E 113°45'714.4
2019-Oct-06 06:00N 22°23' E 113°47'714.3
2019-Oct-06 05:30N 22°15' E 113°48'712.9
2019-Oct-06 05:00N 22°09' E 113°47'4 8.9
2019-Oct-06 04:30N 22°05' E 113°50'3 5.5
2019-Oct-06 04:00N 22°04' E 113°52'0 0.0
2019-Oct-06 03:24N 22°04' E 113°52'0 0.1
2019-Oct-06 02:36N 22°04' E 113°52'0 0.4
2019-Oct-06 02:24N 22°04' E 113°52'0 0.1
2019-Oct-06 01:42N 22°04' E 113°52'0 0.0
2019-Oct-05 23:57N 22°04' E 113°52'0 0.0
2019-Oct-05 23:30N 22°04' E 113°52'0 0.1
2019-Oct-05 22:54N 22°04' E 113°52'0 0.1
2019-Oct-05 22:27N 22°04' E 113°52'0 0.1
2019-Oct-05 21:51N 22°04' E 113°52'0 0.1
2019-Oct-05 21:18N 22°04' E 113°52'0 0.2
2019-Oct-05 21:00N 22°04' E 113°52'3 5.1
2019-Oct-05 20:28N 22°01' E 113°54'613.4
2019-Oct-05 20:00N 21°59' E 114°00'813.3
2019-Oct-05 19:25N 22°04' E 114°07'512.8
2019-Oct-05 19:00N 22°07' E 114°12'8 9.5
2019-Oct-05 18:10N 22°14' E 114°08'1 7.8
2019-Oct-05 18:00N 22°15' E 114°07'5 9.5
2019-Oct-05 17:30N 22°19' E 114°07'1 2.0
2019-Oct-05 17:00N 22°20' E 114°08'0 0.0
2019-Oct-05 16:30N 22°20' E 114°08'0 0.0
2019-Oct-05 15:57N 22°20' E 114°08'0 0.0
2019-Oct-05 15:30N 22°20' E 114°08'0 0.0
2019-Oct-05 15:00N 22°20' E 114°08'0 0.0
2019-Oct-05 14:30N 22°20' E 114°08'0 0.0
2019-Oct-05 14:00N 22°20' E 114°08'0 0.0
2019-Oct-05 13:30N 22°20' E 114°08'0 0.0
2019-Oct-05 13:00N 22°20' E 114°08'0 0.0
2019-Oct-05 12:30N 22°20' E 114°08'0 0.0
2019-Oct-05 12:00N 22°20' E 114°08'0 0.0
2019-Oct-05 11:30N 22°20' E 114°08'0 0.0
2019-Oct-05 11:00N 22°20' E 114°08'0 0.0
2019-Oct-05 10:30N 22°20' E 114°08'0 0.0
2019-Oct-05 10:00N 22°20' E 114°08'1 1.4
2019-Oct-05 09:30N 22°19' E 114°07'5 9.0
2019-Oct-05 08:58N 22°15' E 114°08'10 7.1
2019-Oct-05 07:29N 22°08' E 114°17'611.6
2019-Oct-05 07:00N 22°07' E 114°23'5 9.0
2019-Oct-05 06:30N 22°05' E 114°27'611.5
2019-Oct-05 06:00N 21°59' E 114°26'612.0
2019-Oct-05 05:30N 21°53' E 114°24'4 7.6
2019-Oct-05 04:59N 21°49' E 114°24'814.0
2019-Oct-05 04:25N 21°41' E 114°22'613.9
2019-Oct-05 04:00N 21°36' E 114°21'913.7
2019-Oct-05 03:21N 21°27' E 114°17'913.8
2019-Oct-05 02:44N 21°19' E 114°15'713.7
2019-Oct-05 02:14N 21°12' E 114°13'2013.6
2019-Oct-05 00:45N 20°54' E 114°05'1114.2
2019-Oct-04 23:56N 20°42' E 114°02'815.0
2019-Oct-04 23:23N 20°34' E 114°03'1014.9
2019-Oct-04 22:43N 20°24' E 114°04'  
Track history (hours):
 
Tides and Currents Weather Stations Pressure Air Temp Water Temp Dewpoint Dewpoint Depression Visibility Wind Speed Wind Dir Waves Ship Positions

Mercury

Operator: Royal Caribbean Cruises Ltd

Last reported at 2019-Oct-11 20:21 UTC. Time now 2019-Oct-18 23:36 UTC.
Position N 31°24' E 122°34'.

Length 199 m; draft 8.1 m.

Type: Cargo ship. MMSI: 371862000.

Date/timePositionNaut miles runAvg speedWind from/ knotsBaromVisibWave heightAir tempDewpointWater temp
2019-Oct-11 20:21N 31°24' E 122°34'512.3
2019-Oct-11 19:56N 31°19' E 122°33'512.5
2019-Oct-11 19:30N 31°14' E 122°32'712.3
2019-Oct-11 18:55N 31°06' E 122°33'510.9
2019-Oct-11 18:26N 31°06' E 122°27'613.7
2019-Oct-11 18:00N 31°06' E 122°20'714.4
2019-Oct-11 17:30N 31°10' E 122°12'715.0
2019-Oct-11 17:00N 31°14' E 122°05'714.4
2019-Oct-11 16:30N 31°15' E 121°57'612.7
2019-Oct-11 16:00N 31°17' E 121°50'611.0
2019-Oct-11 15:28N 31°19' E 121°43'2 0.2
2019-Oct-11 04:02N 31°20' E 121°41'0 1.4
2019-Oct-11 04:00N 31°20' E 121°41'3 5.8
2019-Oct-11 03:25N 31°19' E 121°45'4 9.1
2019-Oct-11 03:00N 31°17' E 121°49'510.1
2019-Oct-11 02:31N 31°16' E 121°55'611.1
2019-Oct-11 01:57N 31°15' E 122°02'511.1
2019-Oct-11 01:29N 31°13' E 122°07'510.1
2019-Oct-11 01:00N 31°10' E 122°12'510.0
2019-Oct-11 00:30N 31°07' E 122°17'4 8.4
2019-Oct-10 23:58N 31°06' E 122°22'3 6.0
2019-Oct-10 23:30N 31°07' E 122°25'4 7.4
2019-Oct-10 22:59N 31°09' E 122°28'3 5.6
2019-Oct-10 22:30N 31°11' E 122°31'4 6.2
2019-Oct-10 21:52N 31°13' E 122°35'0 0.0
2019-Oct-10 20:55N 31°13' E 122°35'0 0.0
2019-Oct-10 19:22N 31°13' E 122°35'0 0.0
2019-Oct-10 18:49N 31°13' E 122°35'15 0.9
2019-Oct-10 02:20N 31°05' E 122°51'35212.3
2019-Oct-08 21:49N 25°33' E 120°40'512.2
2019-Oct-08 21:26N 25°29' E 120°37'612.3
2019-Oct-08 20:58N 25°24' E 120°35'32511.4
2019-Oct-07 16:25N 21°54' E 116°04'613.1
2019-Oct-07 15:56N 21°52' E 115°57'1113.1
2019-Oct-07 15:07N 21°49' E 115°46'913.1
2019-Oct-07 14:25N 21°46' E 115°37'1013.0
2019-Oct-07 13:40N 21°43' E 115°27'213.0
2019-Oct-07 13:30N 21°42' E 115°25'8012.4
2019-Oct-07 07:01N 21°45' E 113°59'010.7
2019-Oct-07 06:59N 21°45' E 113°58'611.0
2019-Oct-07 06:27N 21°49' E 113°53'812.7
2019-Oct-07 05:49N 21°56' E 113°51'412.4
2019-Oct-07 05:30N 22°00' E 113°52'712.7
2019-Oct-07 04:59N 22°06' E 113°48'4 9.2
2019-Oct-07 04:30N 22°11' E 113°47'714.6
2019-Oct-07 04:00N 22°18' E 113°48'714.3
2019-Oct-07 03:30N 22°25' E 113°46'714.9
2019-Oct-07 03:00N 22°32' E 113°44'2012.4
2019-Oct-07 01:21N 22°50' E 113°35'410.7
2019-Oct-07 00:59N 22°54' E 113°34'7 9.4
2019-Oct-07 00:15N 23°01' E 113°32'0 0.0
2019-Oct-06 21:09N 23°01' E 113°32'0 0.0
2019-Oct-06 20:54N 23°01' E 113°32'0 0.0
2019-Oct-06 20:27N 23°01' E 113°32'0 0.0
2019-Oct-06 19:57N 23°01' E 113°32'0 0.0
2019-Oct-06 19:30N 23°01' E 113°32'0 0.0
2019-Oct-06 17:57N 23°01' E 113°32'0 0.0
2019-Oct-06 17:27N 23°01' E 113°32'0 0.0
2019-Oct-06 14:54N 23°01' E 113°32'0 0.0
2019-Oct-06 09:53N 23°01' E 113°32'1 2.5
2019-Oct-06 09:30N 22°60' E 113°32'5 9.2
2019-Oct-06 08:57N 22°55' E 113°34'4 8.9
2019-Oct-06 08:28N 22°51' E 113°34'611.4
2019-Oct-06 07:55N 22°46' E 113°38'410.2
2019-Oct-06 07:30N 22°42' E 113°41'611.8
2019-Oct-06 07:00N 22°37' E 113°42'714.7
2019-Oct-06 06:31N 22°30' E 113°45'714.4
2019-Oct-06 06:00N 22°23' E 113°47'714.3
2019-Oct-06 05:30N 22°15' E 113°48'712.9
2019-Oct-06 05:00N 22°09' E 113°47'4 8.9
2019-Oct-06 04:30N 22°05' E 113°50'3 5.5
2019-Oct-06 04:00N 22°04' E 113°52'0 0.0
2019-Oct-06 03:24N 22°04' E 113°52'0 0.1
2019-Oct-06 02:36N 22°04' E 113°52'0 0.4
2019-Oct-06 02:24N 22°04' E 113°52'0 0.1
2019-Oct-06 01:42N 22°04' E 113°52'0 0.0
2019-Oct-05 23:57N 22°04' E 113°52'0 0.0
2019-Oct-05 23:30N 22°04' E 113°52'0 0.1
2019-Oct-05 22:54N 22°04' E 113°52'0 0.1
2019-Oct-05 22:27N 22°04' E 113°52'0 0.1
2019-Oct-05 21:51N 22°04' E 113°52'0 0.1
2019-Oct-05 21:18N 22°04' E 113°52'0 0.2
2019-Oct-05 21:00N 22°04' E 113°52'3 5.1
2019-Oct-05 20:28N 22°01' E 113°54'613.4
2019-Oct-05 20:00N 21°59' E 114°00'813.3
2019-Oct-05 19:25N 22°04' E 114°07'512.8
2019-Oct-05 19:00N 22°07' E 114°12'8 9.5
2019-Oct-05 18:10N 22°14' E 114°08'1 7.8
2019-Oct-05 18:00N 22°15' E 114°07'5 9.5
2019-Oct-05 17:30N 22°19' E 114°07'1 2.0
2019-Oct-05 17:00N 22°20' E 114°08'0 0.0
2019-Oct-05 16:30N 22°20' E 114°08'0 0.0
2019-Oct-05 15:57N 22°20' E 114°08'0 0.0
2019-Oct-05 15:30N 22°20' E 114°08'0 0.0
2019-Oct-05 15:00N 22°20' E 114°08'0 0.0
2019-Oct-05 14:30N 22°20' E 114°08'0 0.0
2019-Oct-05 14:00N 22°20' E 114°08'0 0.0
2019-Oct-05 13:30N 22°20' E 114°08'0 0.0
2019-Oct-05 13:00N 22°20' E 114°08'0 0.0
2019-Oct-05 12:30N 22°20' E 114°08'0 0.0
2019-Oct-05 12:00N 22°20' E 114°08'0 0.0
2019-Oct-05 11:30N 22°20' E 114°08'0 0.0
2019-Oct-05 11:00N 22°20' E 114°08'0 0.0
2019-Oct-05 10:30N 22°20' E 114°08'0 0.0
2019-Oct-05 10:00N 22°20' E 114°08'1 1.4
2019-Oct-05 09:30N 22°19' E 114°07'5 9.0
2019-Oct-05 08:58N 22°15' E 114°08'10 7.1
2019-Oct-05 07:29N 22°08' E 114°17'611.6
2019-Oct-05 07:00N 22°07' E 114°23'5 9.0
2019-Oct-05 06:30N 22°05' E 114°27'611.5
2019-Oct-05 06:00N 21°59' E 114°26'612.0
2019-Oct-05 05:30N 21°53' E 114°24'4 7.6
2019-Oct-05 04:59N 21°49' E 114°24'814.0
2019-Oct-05 04:25N 21°41' E 114°22'613.9
2019-Oct-05 04:00N 21°36' E 114°21'913.7
2019-Oct-05 03:21N 21°27' E 114°17'913.8
2019-Oct-05 02:44N 21°19' E 114°15'713.7
2019-Oct-05 02:14N 21°12' E 114°13'2013.6
2019-Oct-05 00:45N 20°54' E 114°05'1114.2
2019-Oct-04 23:56N 20°42' E 114°02'815.0
2019-Oct-04 23:23N 20°34' E 114°03'1014.9
2019-Oct-04 22:43N 20°24' E 114°04'  

Dump ship's entire track history